Tomriz A — TCRB8 — position and weather

sailwx.info

Track history (hours):
 
Tides and Currents Weather Stations Pressure Air Temp Water Temp Dewpoint Dewpoint Depression Visibility Wind Speed Wind Dir Waves Ship Positions

Tomriz A

Last reported at 2018-Feb-17 22:30 UTC. Time now 2018-Feb-20 13:58 UTC.
Position N 37°01' E 013°37'.

Type: Ship (hazmat cat A). MMSI: 27100158.

Date/timePositionNaut miles runAvg speedWind from/ knotsBaromVisibWave heightAir tempDewpointWater temp
2018-Feb-17 22:30N 37°01' E 013°37'815.3
2018-Feb-17 22:00N 36°59' E 013°46'714.6
2018-Feb-17 21:30N 36°56' E 013°54'814.4
2018-Feb-17 20:59N 36°52' E 014°02'714.3
2018-Feb-17 20:30N 36°49' E 014°10'714.2
2018-Feb-17 20:00N 36°45' E 014°17'714.2
2018-Feb-17 19:30N 36°41' E 014°25'713.7
2018-Feb-17 19:00N 36°39' E 014°33'42313.8
2018-Feb-16 12:21N 36°51' E 023°20'615.1
2018-Feb-16 11:58N 36°56' E 023°21'915.8
2018-Feb-16 11:23N 37°04' E 023°27'2315.8
2018-Feb-16 09:57N 37°24' E 023°41'715.5
2018-Feb-16 09:30N 37°31' E 023°41'815.7
2018-Feb-16 09:00N 37°39' E 023°42'815.2
2018-Feb-16 08:30N 37°46' E 023°39'714.5
2018-Feb-16 08:00N 37°53' E 023°37'4 8.3
2018-Feb-16 07:30N 37°57' E 023°36'0 0.4
2018-Feb-16 06:59N 37°57' E 023°36'0 0.0
2018-Feb-16 06:30N 37°57' E 023°36'0 0.0
2018-Feb-16 06:00N 37°57' E 023°36'0 0.0
2018-Feb-16 05:30N 37°57' E 023°36'0 0.0
2018-Feb-16 05:00N 37°57' E 023°36'0 0.0
2018-Feb-16 04:30N 37°57' E 023°36'0 0.0
2018-Feb-16 04:00N 37°57' E 023°36'0 0.0
2018-Feb-16 03:30N 37°57' E 023°36'0 0.0
2018-Feb-16 03:00N 37°57' E 023°36'0 0.0
2018-Feb-16 02:30N 37°57' E 023°36'0 0.0
2018-Feb-16 02:00N 37°57' E 023°36'0 0.0
2018-Feb-16 01:30N 37°57' E 023°36'0 0.0
2018-Feb-16 00:59N 37°57' E 023°36'0 0.0
2018-Feb-16 00:29N 37°57' E 023°36'0 0.0
2018-Feb-16 00:00N 37°57' E 023°36'0 0.0
2018-Feb-15 23:29N 37°57' E 023°36'0 0.0
2018-Feb-15 23:00N 37°57' E 023°36'0 0.0
2018-Feb-15 22:30N 37°57' E 023°36'0 0.0
2018-Feb-15 22:00N 37°57' E 023°36'0 0.0
2018-Feb-15 21:29N 37°57' E 023°36'0 0.0
2018-Feb-15 20:59N 37°57' E 023°36'0 0.0
2018-Feb-15 20:30N 37°57' E 023°36'0 0.0
2018-Feb-15 20:00N 37°57' E 023°36'2 3.7
2018-Feb-15 19:31N 37°56' E 023°36'1 1.8
2018-Feb-15 19:01N 37°55' E 023°36'1 1.3
2018-Feb-15 18:31N 37°54' E 023°36'0 0.8
2018-Feb-15 18:01N 37°54' E 023°35'1 1.2
2018-Feb-15 17:31N 37°54' E 023°35'2 0.3
2018-Feb-15 10:54N 37°54' E 023°33'0 0.1
2018-Feb-15 10:30N 37°54' E 023°33'0 0.0
2018-Feb-15 10:00N 37°54' E 023°33'0 0.1
2018-Feb-15 09:30N 37°54' E 023°33'0 0.0
2018-Feb-15 09:00N 37°54' E 023°33'0 0.3
2018-Feb-15 08:30N 37°53' E 023°32'0 0.0
2018-Feb-15 08:00N 37°53' E 023°32'0 0.1
2018-Feb-15 07:30N 37°53' E 023°32'0 0.1
2018-Feb-15 07:00N 37°54' E 023°32'0 0.1
2018-Feb-15 06:30N 37°54' E 023°32'0 0.0
2018-Feb-15 06:00N 37°54' E 023°32'0 0.2
2018-Feb-15 05:30N 37°54' E 023°33'0 0.0
2018-Feb-15 05:00N 37°54' E 023°33'0 0.0
2018-Feb-15 04:29N 37°54' E 023°33'0 0.3
2018-Feb-15 04:00N 37°53' E 023°33'4 7.5
2018-Feb-15 03:30N 37°52' E 023°37'611.9
2018-Feb-15 03:00N 37°47' E 023°41'713.7
2018-Feb-15 02:29N 37°41' E 023°46'713.6
2018-Feb-15 01:59N 37°36' E 023°52'29711.2
2018-Feb-13 23:36N 40°25' E 029°05'0 0.5
2018-Feb-13 23:31N 40°25' E 029°05'0 0.0
2018-Feb-13 13:53N 40°25' E 029°05'1 3.7
2018-Feb-13 13:29N 40°26' E 029°04'3110.5
2018-Feb-13 10:30N 40°52' E 028°41'11 0.5
2018-Feb-12 14:05N 40°56' E 028°54'214.1
2018-Feb-12 13:57N 40°57' E 028°56'15112.5
2018-Feb-12 01:52N 43°27' E 028°53'515.5
2018-Feb-12 01:30N 43°33' E 028°52'815.7
2018-Feb-12 01:01N 43°41' E 028°51'815.7
2018-Feb-12 00:31N 43°48' E 028°50'815.6
2018-Feb-12 00:00N 43°56' E 028°49'815.4
2018-Feb-11 23:30N 44°03' E 028°44'510.4
2018-Feb-11 23:00N 44°08' E 028°41'2 3.7
2018-Feb-11 22:30N 44°09' E 028°39'0 0.7
2018-Feb-11 22:00N 44°09' E 028°39'0 0.2
2018-Feb-11 21:30N 44°09' E 028°39'0 0.2
2018-Feb-11 20:59N 44°09' E 028°39'0 0.0
2018-Feb-11 20:29N 44°09' E 028°39'0 0.0
2018-Feb-11 19:59N 44°09' E 028°39'0 0.0
2018-Feb-11 19:26N 44°09' E 028°39'0 0.0
2018-Feb-11 18:59N 44°09' E 028°39'0 0.0
2018-Feb-11 18:29N 44°09' E 028°39'0 0.0
2018-Feb-11 17:59N 44°09' E 028°39'0 0.0
2018-Feb-11 17:29N 44°09' E 028°39'0 0.0
2018-Feb-11 16:59N 44°09' E 028°39'0 0.0
2018-Feb-11 16:29N 44°09' E 028°39'0 0.0
2018-Feb-11 15:59N 44°09' E 028°39'0 0.0
2018-Feb-11 15:29N 44°09' E 028°39'0 0.0
2018-Feb-11 14:59N 44°09' E 028°39'0 0.0
2018-Feb-11 14:29N 44°09' E 028°39'0 0.0
2018-Feb-11 13:59N 44°09' E 028°39'0 0.0
2018-Feb-11 13:29N 44°09' E 028°39'0 0.0
2018-Feb-11 12:59N 44°09' E 028°39'0 0.0
2018-Feb-11 12:29N 44°09' E 028°39'0 0.0
2018-Feb-11 11:59N 44°09' E 028°39'0 0.1
2018-Feb-11 11:29N 44°09' E 028°39'0 0.1
2018-Feb-11 10:59N 44°09' E 028°39'0 0.0
2018-Feb-11 10:29N 44°09' E 028°39'0 0.0
2018-Feb-11 09:59N 44°09' E 028°39'0 0.0
2018-Feb-11 09:29N 44°09' E 028°39'0 0.0
2018-Feb-11 08:59N 44°09' E 028°39'0 0.0
2018-Feb-11 08:26N 44°09' E 028°39'0 0.0
2018-Feb-11 07:59N 44°09' E 028°39'0 0.0
2018-Feb-11 07:29N 44°09' E 028°39'0 0.0
2018-Feb-11 06:59N 44°09' E 028°39'0 0.0
2018-Feb-11 06:29N 44°09' E 028°39'0 0.0
2018-Feb-11 05:59N 44°09' E 028°39'0 0.0
2018-Feb-11 05:29N 44°09' E 028°39'0 0.0
2018-Feb-11 04:59N 44°09' E 028°39'0 0.0
2018-Feb-11 04:29N 44°09' E 028°39'0 0.0
2018-Feb-11 03:59N 44°09' E 028°39'0 0.0
2018-Feb-11 03:29N 44°09' E 028°39'0 0.0
2018-Feb-11 02:59N 44°09' E 028°39'0 0.0
2018-Feb-11 02:29N 44°09' E 028°39'0 0.0
2018-Feb-11 01:59N 44°09' E 028°39'0 0.0
2018-Feb-11 01:29N 44°09' E 028°39'0 0.0
2018-Feb-11 00:59N 44°09' E 028°39'0 0.0
2018-Feb-11 00:29N 44°09' E 028°39'0 0.1
2018-Feb-10 23:59N 44°09' E 028°39'0 0.0
2018-Feb-10 23:29N 44°09' E 028°39'0 0.0
2018-Feb-10 22:59N 44°09' E 028°39'0 0.0
2018-Feb-10 22:29N 44°09' E 028°39'0 0.0
2018-Feb-10 21:59N 44°09' E 028°39'0 0.0
2018-Feb-10 21:29N 44°09' E 028°39'0 0.0
2018-Feb-10 20:59N 44°09' E 028°39'0 0.0
2018-Feb-10 20:29N 44°09' E 028°39'0 0.0
2018-Feb-10 19:59N 44°09' E 028°39'0 0.0
2018-Feb-10 19:29N 44°09' E 028°39'0 0.0
2018-Feb-10 18:59N 44°09' E 028°39'0 0.0
2018-Feb-10 18:29N 44°09' E 028°39'0 0.0
2018-Feb-10 17:59N 44°09' E 028°39'0 0.0
2018-Feb-10 17:29N 44°09' E 028°39'0 0.0
2018-Feb-10 17:01N 44°09' E 028°39'1 1.8
2018-Feb-10 16:30N 44°09' E 028°40'3 6.4
2018-Feb-10 16:00N 44°06' E 028°42'5 9.9
2018-Feb-10 15:31N 44°03' E 028°47'714.5
2018-Feb-10 15:00N 43°56' E 028°51'714.8
2018-Feb-10 14:30N 43°49' E 028°51'715.0
2018-Feb-10 14:01N 43°41' E 028°49'714.9
2018-Feb-10 13:30N 43°34' E 028°47'  
Track history (hours):
 
Tides and Currents Weather Stations Pressure Air Temp Water Temp Dewpoint Dewpoint Depression Visibility Wind Speed Wind Dir Waves Ship Positions

Tomriz A

Last reported at 2018-Feb-17 22:30 UTC. Time now 2018-Feb-20 13:58 UTC.
Position N 37°01' E 013°37'.

Type: Ship (hazmat cat A). MMSI: 27100158.

Date/timePositionNaut miles runAvg speedWind from/ knotsBaromVisibWave heightAir tempDewpointWater temp
2018-Feb-17 22:30N 37°01' E 013°37'815.3
2018-Feb-17 22:00N 36°59' E 013°46'714.6
2018-Feb-17 21:30N 36°56' E 013°54'814.4
2018-Feb-17 20:59N 36°52' E 014°02'714.3
2018-Feb-17 20:30N 36°49' E 014°10'714.2
2018-Feb-17 20:00N 36°45' E 014°17'714.2
2018-Feb-17 19:30N 36°41' E 014°25'713.7
2018-Feb-17 19:00N 36°39' E 014°33'42313.8
2018-Feb-16 12:21N 36°51' E 023°20'615.1
2018-Feb-16 11:58N 36°56' E 023°21'915.8
2018-Feb-16 11:23N 37°04' E 023°27'2315.8
2018-Feb-16 09:57N 37°24' E 023°41'715.5
2018-Feb-16 09:30N 37°31' E 023°41'815.7
2018-Feb-16 09:00N 37°39' E 023°42'815.2
2018-Feb-16 08:30N 37°46' E 023°39'714.5
2018-Feb-16 08:00N 37°53' E 023°37'4 8.3
2018-Feb-16 07:30N 37°57' E 023°36'0 0.4
2018-Feb-16 06:59N 37°57' E 023°36'0 0.0
2018-Feb-16 06:30N 37°57' E 023°36'0 0.0
2018-Feb-16 06:00N 37°57' E 023°36'0 0.0
2018-Feb-16 05:30N 37°57' E 023°36'0 0.0
2018-Feb-16 05:00N 37°57' E 023°36'0 0.0
2018-Feb-16 04:30N 37°57' E 023°36'0 0.0
2018-Feb-16 04:00N 37°57' E 023°36'0 0.0
2018-Feb-16 03:30N 37°57' E 023°36'0 0.0
2018-Feb-16 03:00N 37°57' E 023°36'0 0.0
2018-Feb-16 02:30N 37°57' E 023°36'0 0.0
2018-Feb-16 02:00N 37°57' E 023°36'0 0.0
2018-Feb-16 01:30N 37°57' E 023°36'0 0.0
2018-Feb-16 00:59N 37°57' E 023°36'0 0.0
2018-Feb-16 00:29N 37°57' E 023°36'0 0.0
2018-Feb-16 00:00N 37°57' E 023°36'0 0.0
2018-Feb-15 23:29N 37°57' E 023°36'0 0.0
2018-Feb-15 23:00N 37°57' E 023°36'0 0.0
2018-Feb-15 22:30N 37°57' E 023°36'0 0.0
2018-Feb-15 22:00N 37°57' E 023°36'0 0.0
2018-Feb-15 21:29N 37°57' E 023°36'0 0.0
2018-Feb-15 20:59N 37°57' E 023°36'0 0.0
2018-Feb-15 20:30N 37°57' E 023°36'0 0.0
2018-Feb-15 20:00N 37°57' E 023°36'2 3.7
2018-Feb-15 19:31N 37°56' E 023°36'1 1.8
2018-Feb-15 19:01N 37°55' E 023°36'1 1.3
2018-Feb-15 18:31N 37°54' E 023°36'0 0.8
2018-Feb-15 18:01N 37°54' E 023°35'1 1.2
2018-Feb-15 17:31N 37°54' E 023°35'2 0.3
2018-Feb-15 10:54N 37°54' E 023°33'0 0.1
2018-Feb-15 10:30N 37°54' E 023°33'0 0.0
2018-Feb-15 10:00N 37°54' E 023°33'0 0.1
2018-Feb-15 09:30N 37°54' E 023°33'0 0.0
2018-Feb-15 09:00N 37°54' E 023°33'0 0.3
2018-Feb-15 08:30N 37°53' E 023°32'0 0.0
2018-Feb-15 08:00N 37°53' E 023°32'0 0.1
2018-Feb-15 07:30N 37°53' E 023°32'0 0.1
2018-Feb-15 07:00N 37°54' E 023°32'0 0.1
2018-Feb-15 06:30N 37°54' E 023°32'0 0.0
2018-Feb-15 06:00N 37°54' E 023°32'0 0.2
2018-Feb-15 05:30N 37°54' E 023°33'0 0.0
2018-Feb-15 05:00N 37°54' E 023°33'0 0.0
2018-Feb-15 04:29N 37°54' E 023°33'0 0.3
2018-Feb-15 04:00N 37°53' E 023°33'4 7.5
2018-Feb-15 03:30N 37°52' E 023°37'611.9
2018-Feb-15 03:00N 37°47' E 023°41'713.7
2018-Feb-15 02:29N 37°41' E 023°46'713.6
2018-Feb-15 01:59N 37°36' E 023°52'29711.2
2018-Feb-13 23:36N 40°25' E 029°05'0 0.5
2018-Feb-13 23:31N 40°25' E 029°05'0 0.0
2018-Feb-13 13:53N 40°25' E 029°05'1 3.7
2018-Feb-13 13:29N 40°26' E 029°04'3110.5
2018-Feb-13 10:30N 40°52' E 028°41'11 0.5
2018-Feb-12 14:05N 40°56' E 028°54'214.1
2018-Feb-12 13:57N 40°57' E 028°56'15112.5
2018-Feb-12 01:52N 43°27' E 028°53'515.5
2018-Feb-12 01:30N 43°33' E 028°52'815.7
2018-Feb-12 01:01N 43°41' E 028°51'815.7
2018-Feb-12 00:31N 43°48' E 028°50'815.6
2018-Feb-12 00:00N 43°56' E 028°49'815.4
2018-Feb-11 23:30N 44°03' E 028°44'510.4
2018-Feb-11 23:00N 44°08' E 028°41'2 3.7
2018-Feb-11 22:30N 44°09' E 028°39'0 0.7
2018-Feb-11 22:00N 44°09' E 028°39'0 0.2
2018-Feb-11 21:30N 44°09' E 028°39'0 0.2
2018-Feb-11 20:59N 44°09' E 028°39'0 0.0
2018-Feb-11 20:29N 44°09' E 028°39'0 0.0
2018-Feb-11 19:59N 44°09' E 028°39'0 0.0
2018-Feb-11 19:26N 44°09' E 028°39'0 0.0
2018-Feb-11 18:59N 44°09' E 028°39'0 0.0
2018-Feb-11 18:29N 44°09' E 028°39'0 0.0
2018-Feb-11 17:59N 44°09' E 028°39'0 0.0
2018-Feb-11 17:29N 44°09' E 028°39'0 0.0
2018-Feb-11 16:59N 44°09' E 028°39'0 0.0
2018-Feb-11 16:29N 44°09' E 028°39'0 0.0
2018-Feb-11 15:59N 44°09' E 028°39'0 0.0
2018-Feb-11 15:29N 44°09' E 028°39'0 0.0
2018-Feb-11 14:59N 44°09' E 028°39'0 0.0
2018-Feb-11 14:29N 44°09' E 028°39'0 0.0
2018-Feb-11 13:59N 44°09' E 028°39'0 0.0
2018-Feb-11 13:29N 44°09' E 028°39'0 0.0
2018-Feb-11 12:59N 44°09' E 028°39'0 0.0
2018-Feb-11 12:29N 44°09' E 028°39'0 0.0
2018-Feb-11 11:59N 44°09' E 028°39'0 0.1
2018-Feb-11 11:29N 44°09' E 028°39'0 0.1
2018-Feb-11 10:59N 44°09' E 028°39'0 0.0
2018-Feb-11 10:29N 44°09' E 028°39'0 0.0
2018-Feb-11 09:59N 44°09' E 028°39'0 0.0
2018-Feb-11 09:29N 44°09' E 028°39'0 0.0
2018-Feb-11 08:59N 44°09' E 028°39'0 0.0
2018-Feb-11 08:26N 44°09' E 028°39'0 0.0
2018-Feb-11 07:59N 44°09' E 028°39'0 0.0
2018-Feb-11 07:29N 44°09' E 028°39'0 0.0
2018-Feb-11 06:59N 44°09' E 028°39'0 0.0
2018-Feb-11 06:29N 44°09' E 028°39'0 0.0
2018-Feb-11 05:59N 44°09' E 028°39'0 0.0
2018-Feb-11 05:29N 44°09' E 028°39'0 0.0
2018-Feb-11 04:59N 44°09' E 028°39'0 0.0
2018-Feb-11 04:29N 44°09' E 028°39'0 0.0
2018-Feb-11 03:59N 44°09' E 028°39'0 0.0
2018-Feb-11 03:29N 44°09' E 028°39'0 0.0
2018-Feb-11 02:59N 44°09' E 028°39'0 0.0
2018-Feb-11 02:29N 44°09' E 028°39'0 0.0
2018-Feb-11 01:59N 44°09' E 028°39'0 0.0
2018-Feb-11 01:29N 44°09' E 028°39'0 0.0
2018-Feb-11 00:59N 44°09' E 028°39'0 0.0
2018-Feb-11 00:29N 44°09' E 028°39'0 0.1
2018-Feb-10 23:59N 44°09' E 028°39'0 0.0
2018-Feb-10 23:29N 44°09' E 028°39'0 0.0
2018-Feb-10 22:59N 44°09' E 028°39'0 0.0
2018-Feb-10 22:29N 44°09' E 028°39'0 0.0
2018-Feb-10 21:59N 44°09' E 028°39'0 0.0
2018-Feb-10 21:29N 44°09' E 028°39'0 0.0
2018-Feb-10 20:59N 44°09' E 028°39'0 0.0
2018-Feb-10 20:29N 44°09' E 028°39'0 0.0
2018-Feb-10 19:59N 44°09' E 028°39'0 0.0
2018-Feb-10 19:29N 44°09' E 028°39'0 0.0
2018-Feb-10 18:59N 44°09' E 028°39'0 0.0
2018-Feb-10 18:29N 44°09' E 028°39'0 0.0
2018-Feb-10 17:59N 44°09' E 028°39'0 0.0
2018-Feb-10 17:29N 44°09' E 028°39'0 0.0
2018-Feb-10 17:01N 44°09' E 028°39'1 1.8
2018-Feb-10 16:30N 44°09' E 028°40'3 6.4
2018-Feb-10 16:00N 44°06' E 028°42'5 9.9
2018-Feb-10 15:31N 44°03' E 028°47'714.5
2018-Feb-10 15:00N 43°56' E 028°51'714.8
2018-Feb-10 14:30N 43°49' E 028°51'715.0
2018-Feb-10 14:01N 43°41' E 028°49'714.9
2018-Feb-10 13:30N 43°34' E 028°47'  

Dump ship's entire track history